Sedgwick Reserve, California Weather observations

Data are for 10 minute period ending at time listed.
 Day   Time   Solar   Ave.   Ave.  Ave.  Vector  Max.   Baro.   Total    
  of    of     Rad.   Air    Rel.  Wind   Wind   Wind  Press.  Precip.   
Year   Day            Temp.  Hum.  Speed  Dir.   Gust                    
2016   (PST)  Kw/m2    F      %     mph   deg.    mph    mb.     in.     
-------------------------------------------------------------------------
 240    0:00   0.00   51.6    90    0.3   264     1.5   972.5    0.00 
 240    0:10   0.00   51.1    90    0.0     0     0.0   972.6    0.00 
 240    0:20   0.00   51.4    90    0.0     0     0.0   972.6    0.00 
 240    0:30   0.00   50.9    90    0.2   223     1.5   972.5    0.00 
 240    0:40   0.00   50.4    91    0.6   250     1.8   972.4    0.00 
 240    0:50   0.00   50.3    91    1.6   347     2.3   972.5    0.00 
 240    1:00   0.00   50.7    92    2.6   343     3.9   972.5    0.00 
 240    1:10   0.00   51.3    91    1.1   268     2.3   972.2    0.00 
 240    1:20   0.00   52.1    90    0.3   256     1.8   972.2    0.00 
 240    1:30   0.00   52.3    89    0.3   272     2.2   972.2    0.00 
 240    1:40   0.00   52.4    89    1.6   306     2.6   972.2    0.00 
 240    1:50   0.00   52.3    89    0.9   360     1.9   972.2    0.00 
 240    2:00   0.00   52.5    88    1.6    11     2.2   972.2    0.00 
 240    2:10   0.00   53.2    90    1.2     2     2.4   972.0    0.00 
 240    2:20   0.00   53.3    92    1.5     4     2.3   972.0    0.00 
 240    2:30   0.00   53.4    93    2.1    12     3.7   972.0    0.00 
 240    2:40   0.00   53.4    93    2.3   352     3.7   972.1    0.00 
 240    2:50   0.00   53.8    94    2.9     4     4.4   972.1    0.00 
 240    3:00   0.00   53.9    95    2.2   349     3.5   972.2    0.00 
 240    3:10   0.00   54.0    95    2.0   342     2.8   972.1    0.00 
 240    3:20   0.00   53.9    95    1.6    18     2.7   972.2    0.00 
 240    3:30   0.00   53.9    96    1.2    23     2.5   972.3    0.00 
 240    3:40   0.00   53.9    96    2.4     7     3.7   972.4    0.00 
 240    3:50   0.00   53.9    96    2.1   311     3.3   972.4    0.00 
 240    4:00   0.00   53.9    96    2.1   319     3.7   972.4    0.00 
 240    4:10   0.00   53.9    96    2.0   298     3.7   972.4    0.00 
 240    4:20   0.00   53.7    96    2.1   302     3.1   972.4    0.00 
 240    4:30   0.00   53.7    97    2.6   296     3.7   972.4    0.00 
 240    4:40   0.00   53.6    97    2.5   310     3.7   972.5    0.00 
 240    4:50   0.00   53.4    97    3.4     5     5.2   972.5    0.00 
 240    5:00   0.00   53.2    97    2.9   347     3.9   972.6    0.00 
 240    5:10   0.00   53.1    97    2.8   359     5.6   972.6    0.00 
 240    5:20   0.00   52.9    98    3.7   358     6.3   972.6    0.00 
 240    5:30   0.00   52.8    98    3.9     0     5.3   972.7    0.00 
 240    5:40   0.00   52.6    98    4.2     3     5.9   972.7    0.00 
 240    5:50   0.00   52.3    98    4.9   359     6.9   972.7    0.00 
 240    6:00   0.01   52.2    98    3.8     0     5.8   972.7    0.00 
 240    6:10   0.01   52.4    98    3.0    14     4.6   972.9    0.00 
 240    6:20   0.03   52.6    98    2.8   360     4.4   972.9    0.00 
 240    6:30   0.03   52.9    99    1.9   348     3.2   973.0    0.00 
 240    6:40   0.04   53.2    98    2.8   360     4.0   973.0    0.00 
 240    6:50   0.04   53.6    99    2.0   360     4.1   973.1    0.00 
 240    7:00   0.06   53.6    98    2.6     1     4.0   973.2    0.00 
 240    7:10   0.07   54.0    99    1.8     7     2.9   973.2    0.00 
 240    7:20   0.08   54.2    98    2.4   360     3.5   973.3    0.00 
 240    7:30   0.08   54.4    98    0.7   355     2.3   973.5    0.00 
 240    7:40   0.08   54.9    98    0.7   122     2.0   973.6    0.00 
 240    7:50   0.09   55.1    98    1.2    90     3.4   973.6    0.00 
 240    8:00   0.11   55.0    97    1.8    11     3.3   973.6    0.00 
 240    8:10   0.13   55.7    97    1.2    12     2.9   973.6    0.00 
 240    8:20   0.16   56.2    95    2.0   311     3.9   973.7    0.00 
 240    8:30   0.21   56.7    93    1.4   304     4.2   973.8    0.00 
 240    8:40   0.33   57.6    90    1.4    12     3.8   973.9    0.00 
 240    8:50   0.36   58.4    86    3.4   222     5.6   974.0    0.00 
 240    9:00   0.45   59.2    84    2.9   193     5.6   974.2    0.00 
 240    9:10   0.50   60.1    81    3.3   207     6.5   974.3    0.00 
 240    9:20   0.62   61.2    78    3.4   187     5.6   974.4    0.00 
 240    9:30   0.65   62.2    76    4.4   214     8.3   974.4    0.00 
 240    9:40   0.67   63.5    73    5.0   216     9.3   974.4    0.00 
 240    9:50   0.70   64.3    72    4.2   240     8.1   974.4    0.00 
 240   10:00   0.72   64.7    71    5.1   238    10.1   974.5    0.00 
 240   10:10   0.74   64.2    72    6.4   214    10.2   974.5    0.00 
 240   10:20   0.75   65.2    70    5.4   239    10.1   974.5    0.00 
 240   10:30   0.77   65.2    70    5.4   244     9.7   974.4    0.00 
 240   10:40   0.79   66.0    69    7.3   220    11.7   974.3    0.00 
 240   10:50   0.80   66.0    68    6.6   218    10.8   974.2    0.00 
 240   11:00   0.81   67.2    66    6.2   224    10.6   974.1    0.00 
 240   11:10   0.83   69.0    62    4.6   222     9.3   974.1    0.00 
 240   11:20   0.80   69.4    62    6.2   244    12.3   974.1    0.00 
 240   11:30   0.84   68.6    63    6.9   236    12.3   974.1    0.00 
 240   11:40   0.84   69.3    62    8.3   234    16.9   973.9    0.00 
 240   11:50   0.85   70.2    60    5.1   229    10.2   973.9    0.00 
 240   12:00   0.86   70.6    60    6.2   216    13.8   973.9    0.00 
 240   12:10   0.86   71.1    58    6.7   224    12.3   973.9    0.00 
 240   12:20   0.86   71.2    58    8.0   230    14.2   973.8    0.00 
 240   12:30   0.86   71.8    57    5.8   210     9.9   973.8    0.00 
 240   12:40   0.86   73.0    55    6.2   285    11.8   973.8    0.00 
 240   12:50   0.85   74.6    53    4.9   243    11.0   973.8    0.00 
 240   13:00   0.83   74.1    53    5.9   236    10.4   973.7    0.00 
 240   13:10   0.83   74.3    52    7.5   262    13.7   973.7    0.00 
 240   13:20   0.82   74.5    52    8.1   256    13.7   973.6    0.00 
 240   13:30   0.81   74.8    51    6.8   238    11.9   973.6    0.00 
 240   13:40   0.79   74.9    51    7.5   262    12.1   973.5    0.00 
 240   13:50   0.77   75.4    50    8.1   267    13.5   973.5    0.00 
 240   14:00   0.75   75.6    49    7.1   254    13.0   973.4    0.00 
 240   14:10   0.73   75.2    49    7.4   248    14.2   973.4    0.00 
 240   14:20   0.71   76.0    48    8.3   268    18.0   973.2    0.00 
 240   14:30   0.69   75.3    49    9.1   273    14.2   973.2    0.00 
 240   14:40   0.66   76.0    48    9.1   269    15.3   973.2    0.00 
 240   14:50   0.64   76.4    47    8.1   266    13.5   973.1    0.00 
 240   15:00   0.61   76.7    47    9.5   281    16.4   973.0    0.00 
 240   15:10   0.58   76.4    48    9.0   276    14.8   972.9    0.00 
 240   15:20   0.55   75.8    49   10.1   272    15.9   972.8    0.00 
 240   15:30   0.52   76.1    48    9.1   263    15.1   972.8    0.00 
 240   15:40   0.49   75.2    50   10.1   278    15.6   972.7    0.00 
 240   15:50   0.46   75.0    50    9.1   265    16.1   972.7    0.00 
 240   16:00   0.43   74.1    51    9.8   261    15.0   972.7    0.00 
 240   16:10   0.40   74.3    51    9.1   278    14.9   972.7    0.00 
 240   16:20   0.37   73.7    52    8.7   282    15.3   972.7    0.00 
 240   16:30   0.33   73.8    52    8.5   275    14.8   972.7    0.00 
 240   16:40   0.30   72.3    54   10.8   269    16.8   972.7    0.00 
 240   16:50   0.27   71.1    56   10.8   273    15.3   972.8    0.00 
 240   17:00   0.23   71.3    56    9.5   269    14.6   972.9    0.00 
 240   17:10   0.20   69.9    58   10.4   273    15.0   973.0    0.00 
 240   17:20   0.17   69.2    59    9.5   277    14.3   973.1    0.00 
 240   17:30   0.14   68.7    60    8.0   276    13.4   973.1    0.00 
 240   17:40   0.11   67.6    62    9.0   279    13.3   973.0    0.00 
 240   17:50   0.08   67.0    63    7.2   282    12.6   973.0    0.00 
 240   18:00   0.07   66.4    64    7.0   277    11.4   972.9    0.00 
 240   18:10   0.04   65.3    66    7.8   281    12.1   972.9    0.00 
 240   18:20   0.02   64.5    68    6.0   277    10.3   972.9    0.00 
 240   18:30   0.01   63.6    70    7.3   281    11.8   973.0    0.00 
 240   18:40   0.00   63.0    71    4.7   286     9.3   973.0    0.00 
 240   18:50   0.00   62.5    72    2.6   282     6.4   973.0    0.00 
 240   19:00   0.00   62.0    73    2.1   298     3.5   972.9    0.00 
 240   19:10   0.00   61.7    73    2.5   299     5.0   972.9    0.00 
 240   19:20   0.00   61.2    74    2.8   313     4.6   973.0    0.00 
 240   19:30   0.00   60.9    75    2.0   280     2.8   973.1    0.00 
 240   19:40   0.00   60.3    76    2.4   275     3.3   973.1    0.00 
 240   19:50   0.00   59.9    77    3.0   269     3.7   973.2    0.00 
 240   20:00   0.00   59.6    78    3.6   277     5.3   973.3    0.00 
 240   20:10   0.00   59.3    78    3.3   286     4.7   973.4    0.00 
 240   20:20   0.00   58.5    79    2.5   356     3.7   973.4    0.00 
 240   20:30   0.00   57.3    80    2.2   354     3.9   973.4    0.00 
 240   20:40   0.00   57.2    80    1.0   300     2.6   973.4    0.00 
 240   20:50   0.00   57.3    80    1.0   340     2.4   973.5    0.00 
 240   21:00   0.00   56.6    80    1.7   353     3.3   973.5    0.00 
 240   21:10   0.00   56.2    81    0.4   295     1.3   973.6    0.00 
 240   21:20   0.00   56.2    81    0.4   262     1.3   973.6    0.00 
 240   21:30   0.00   56.2    82    0.6   287     1.6   973.6    0.00 
 240   21:40   0.00   55.3    83    1.7     9     3.4   973.7    0.00 
 240   21:50   0.00   54.7    83    0.9   298     2.0   973.7    0.00 
 240   22:00   0.00   54.9    83    0.6   269     1.4   973.7    0.00 
 240   22:10   0.00   54.8    84    0.4    14     1.9   973.8    0.00 
 240   22:20   0.00   54.2    84    0.1   102     1.2   973.8    0.00 

Return to Sedgwick Reserve graphs page.


Western Regional Climate Center,wrcc@dri.edu